sensor_id;sensor_type;location;lat;lon;timestamp;temperature;humidity
60965;DHT22;46834;51.100;6.886;2022-11-12T00:00:40;9.30;49.80
60965;DHT22;46834;51.100;6.886;2022-11-12T00:03:06;9.30;49.80
60965;DHT22;46834;51.100;6.886;2022-11-12T00:05:32;9.30;49.80
60965;DHT22;46834;51.100;6.886;2022-11-12T00:07:59;9.20;49.70
60965;DHT22;46834;51.100;6.886;2022-11-12T00:10:25;9.20;49.70
60965;DHT22;46834;51.100;6.886;2022-11-12T00:12:52;9.20;49.80
60965;DHT22;46834;51.100;6.886;2022-11-12T00:15:18;9.20;49.70
60965;DHT22;46834;51.100;6.886;2022-11-12T00:17:44;9.20;49.80
60965;DHT22;46834;51.100;6.886;2022-11-12T00:20:10;9.10;49.70
60965;DHT22;46834;51.100;6.886;2022-11-12T00:22:36;9.20;49.80
60965;DHT22;46834;51.100;6.886;2022-11-12T00:25:03;9.10;49.70
60965;DHT22;46834;51.100;6.886;2022-11-12T00:27:31;9.10;49.70
60965;DHT22;46834;51.100;6.886;2022-11-12T00:29:57;9.10;49.70
60965;DHT22;46834;51.100;6.886;2022-11-12T00:32:23;9.10;49.60
60965;DHT22;46834;51.100;6.886;2022-11-12T00:34:49;9.10;49.70
60965;DHT22;46834;51.100;6.886;2022-11-12T00:37:14;9.00;49.60
60965;DHT22;46834;51.100;6.886;2022-11-12T00:39:41;9.00;49.60
60965;DHT22;46834;51.100;6.886;2022-11-12T00:42:07;9.00;49.70
60965;DHT22;46834;51.100;6.886;2022-11-12T00:44:33;9.00;49.70
60965;DHT22;46834;51.100;6.886;2022-11-12T00:46:59;8.90;49.70
60965;DHT22;46834;51.100;6.886;2022-11-12T00:49:24;8.90;49.70
60965;DHT22;46834;51.100;6.886;2022-11-12T00:51:50;8.90;49.70
60965;DHT22;46834;51.100;6.886;2022-11-12T00:54:16;8.90;49.70
60965;DHT22;46834;51.100;6.886;2022-11-12T00:56:41;8.90;49.70
60965;DHT22;46834;51.100;6.886;2022-11-12T00:59:07;8.80;49.60
60965;DHT22;46834;51.100;6.886;2022-11-12T01:01:33;8.80;49.70
60965;DHT22;46834;51.100;6.886;2022-11-12T01:03:59;8.80;49.70
60965;DHT22;46834;51.100;6.886;2022-11-12T01:06:25;8.80;49.70
60965;DHT22;46834;51.100;6.886;2022-11-12T01:08:51;8.70;49.70
60965;DHT22;46834;51.100;6.886;2022-11-12T01:11:24;8.70;49.70
60965;DHT22;46834;51.100;6.886;2022-11-12T01:13:59;8.70;49.80
60965;DHT22;46834;51.100;6.886;2022-11-12T01:16:29;8.70;49.90
60965;DHT22;46834;51.100;6.886;2022-11-12T01:18:59;8.70;49.90
60965;DHT22;46834;51.100;6.886;2022-11-12T01:21:28;8.60;49.90
60965;DHT22;46834;51.100;6.886;2022-11-12T01:23:59;8.60;49.90
60965;DHT22;46834;51.100;6.886;2022-11-12T01:26:26;8.60;50.00
60965;DHT22;46834;51.100;6.886;2022-11-12T01:28:55;8.60;49.90
60965;DHT22;46834;51.100;6.886;2022-11-12T01:31:36;8.60;49.90
60965;DHT22;46834;51.100;6.886;2022-11-12T01:34:06;8.60;50.10
60965;DHT22;46834;51.100;6.886;2022-11-12T01:36:36;8.60;50.00
60965;DHT22;46834;51.100;6.886;2022-11-12T01:39:07;8.60;50.00
60965;DHT22;46834;51.100;6.886;2022-11-12T01:41:35;8.60;50.10
60965;DHT22;46834;51.100;6.886;2022-11-12T01:44:07;8.60;50.00
60965;DHT22;46834;51.100;6.886;2022-11-12T01:49:26;8.50;49.90
60965;DHT22;46834;51.100;6.886;2022-11-12T01:51:59;8.50;49.80
60965;DHT22;46834;51.100;6.886;2022-11-12T01:54:35;8.50;49.80
60965;DHT22;46834;51.100;6.886;2022-11-12T01:57:02;8.50;49.70
60965;DHT22;46834;51.100;6.886;2022-11-12T01:59:32;8.40;49.70
60965;DHT22;46834;51.100;6.886;2022-11-12T02:02:02;8.40;49.80
60965;DHT22;46834;51.100;6.886;2022-11-12T02:04:29;8.40;49.70
60965;DHT22;46834;51.100;6.886;2022-11-12T02:06:57;8.40;49.70
60965;DHT22;46834;51.100;6.886;2022-11-12T02:09:25;8.30;49.70
60965;DHT22;46834;51.100;6.886;2022-11-12T02:11:51;8.30;49.70
60965;DHT22;46834;51.100;6.886;2022-11-12T02:14:16;8.30;49.70
60965;DHT22;46834;51.100;6.886;2022-11-12T02:16:44;8.30;49.70
60965;DHT22;46834;51.100;6.886;2022-11-12T02:19:13;8.30;49.80
60965;DHT22;46834;51.100;6.886;2022-11-12T02:21:41;8.30;49.80
60965;DHT22;46834;51.100;6.886;2022-11-12T02:26:47;8.20;49.90
60965;DHT22;46834;51.100;6.886;2022-11-12T02:29:15;8.20;49.90
60965;DHT22;46834;51.100;6.886;2022-11-12T02:31:41;8.20;49.70
60965;DHT22;46834;51.100;6.886;2022-11-12T02:34:07;8.20;49.70
60965;DHT22;46834;51.100;6.886;2022-11-12T02:36:33;8.20;49.80
60965;DHT22;46834;51.100;6.886;2022-11-12T02:38:58;8.20;49.80
60965;DHT22;46834;51.100;6.886;2022-11-12T02:41:24;8.20;49.80
60965;DHT22;46834;51.100;6.886;2022-11-12T02:43:50;8.20;49.80
60965;DHT22;46834;51.100;6.886;2022-11-12T02:46:16;8.20;49.80
60965;DHT22;46834;51.100;6.886;2022-11-12T02:48:43;8.20;49.80
60965;DHT22;46834;51.100;6.886;2022-11-12T02:51:09;8.20;49.80
60965;DHT22;46834;51.100;6.886;2022-11-12T02:53:35;8.20;49.80
60965;DHT22;46834;51.100;6.886;2022-11-12T02:56:01;8.20;49.90
60965;DHT22;46834;51.100;6.886;2022-11-12T02:58:27;8.20;49.90
60965;DHT22;46834;51.100;6.886;2022-11-12T03:00:54;8.20;49.90
60965;DHT22;46834;51.100;6.886;2022-11-12T03:03:21;8.20;49.90
60965;DHT22;46834;51.100;6.886;2022-11-12T03:05:58;8.20;49.80
60965;DHT22;46834;51.100;6.886;2022-11-12T03:08:25;8.20;50.00
60965;DHT22;46834;51.100;6.886;2022-11-12T03:10:51;8.20;49.80
60965;DHT22;46834;51.100;6.886;2022-11-12T03:13:18;8.10;49.70
60965;DHT22;46834;51.100;6.886;2022-11-12T03:15:45;8.10;49.70
60965;DHT22;46834;51.100;6.886;2022-11-12T03:18:10;8.10;49.70
60965;DHT22;46834;51.100;6.886;2022-11-12T03:20:36;8.10;49.70
60965;DHT22;46834;51.100;6.886;2022-11-12T03:23:08;8.10;49.70
60965;DHT22;46834;51.100;6.886;2022-11-12T03:25:35;8.10;49.90
60965;DHT22;46834;51.100;6.886;2022-11-12T03:30:33;8.10;49.80
60965;DHT22;46834;51.100;6.886;2022-11-12T03:33:04;8.10;49.80
60965;DHT22;46834;51.100;6.886;2022-11-12T03:35:32;8.10;49.80
60965;DHT22;46834;51.100;6.886;2022-11-12T03:37:59;8.10;49.70
60965;DHT22;46834;51.100;6.886;2022-11-12T03:40:26;8.10;49.70
60965;DHT22;46834;51.100;6.886;2022-11-12T03:42:52;8.00;49.70
60965;DHT22;46834;51.100;6.886;2022-11-12T03:45:20;8.00;49.70
60965;DHT22;46834;51.100;6.886;2022-11-12T03:47:49;8.00;49.80
60965;DHT22;46834;51.100;6.886;2022-11-12T03:50:18;8.00;49.80
60965;DHT22;46834;51.100;6.886;2022-11-12T03:52:48;8.00;49.80
60965;DHT22;46834;51.100;6.886;2022-11-12T03:55:18;8.00;49.80
60965;DHT22;46834;51.100;6.886;2022-11-12T03:57:47;8.00;49.90
60965;DHT22;46834;51.100;6.886;2022-11-12T04:00:15;8.00;49.90
60965;DHT22;46834;51.100;6.886;2022-11-12T04:02:41;7.90;49.80
60965;DHT22;46834;51.100;6.886;2022-11-12T04:05:07;8.00;49.90
60965;DHT22;46834;51.100;6.886;2022-11-12T04:07:57;7.90;49.90
60965;DHT22;46834;51.100;6.886;2022-11-12T04:10:43;7.90;50.00
60965;DHT22;46834;51.100;6.886;2022-11-12T04:13:09;7.90;49.80
60965;DHT22;46834;51.100;6.886;2022-11-12T04:16:04;7.90;49.90
60965;DHT22;46834;51.100;6.886;2022-11-12T04:18:55;7.90;50.10
60965;DHT22;46834;51.100;6.886;2022-11-12T04:21:45;7.90;49.90
60965;DHT22;46834;51.100;6.886;2022-11-12T04:24:32;7.90;50.00
60965;DHT22;46834;51.100;6.886;2022-11-12T04:27:23;7.80;50.00
60965;DHT22;46834;51.100;6.886;2022-11-12T04:29:51;7.80;49.90
60965;DHT22;46834;51.100;6.886;2022-11-12T04:32:48;7.80;49.90
60965;DHT22;46834;51.100;6.886;2022-11-12T04:35:22;7.80;50.10
60965;DHT22;46834;51.100;6.886;2022-11-12T04:37:49;7.80;50.00
60965;DHT22;46834;51.100;6.886;2022-11-12T04:40:17;7.70;49.90
60965;DHT22;46834;51.100;6.886;2022-11-12T04:43:09;7.70;49.90
60965;DHT22;46834;51.100;6.886;2022-11-12T04:46:00;7.70;49.90
60965;DHT22;46834;51.100;6.886;2022-11-12T04:48:27;7.70;49.80
60965;DHT22;46834;51.100;6.886;2022-11-12T04:50:57;7.70;49.80
60965;DHT22;46834;51.100;6.886;2022-11-12T04:53:24;7.70;49.80
60965;DHT22;46834;51.100;6.886;2022-11-12T04:55:51;7.60;49.80
60965;DHT22;46834;51.100;6.886;2022-11-12T04:58:18;7.60;49.80
60965;DHT22;46834;51.100;6.886;2022-11-12T05:00:44;7.60;49.80
60965;DHT22;46834;51.100;6.886;2022-11-12T05:03:10;7.60;49.90
60965;DHT22;46834;51.100;6.886;2022-11-12T05:05:36;7.60;49.90
60965;DHT22;46834;51.100;6.886;2022-11-12T05:08:01;7.60;49.90
60965;DHT22;46834;51.100;6.886;2022-11-12T05:10:28;7.60;49.90
60965;DHT22;46834;51.100;6.886;2022-11-12T05:12:54;7.60;50.00
60965;DHT22;46834;51.100;6.886;2022-11-12T05:15:20;7.60;50.00
60965;DHT22;46834;51.100;6.886;2022-11-12T05:17:46;7.50;49.90
60965;DHT22;46834;51.100;6.886;2022-11-12T05:20:12;7.50;49.90
60965;DHT22;46834;51.100;6.886;2022-11-12T05:22:39;7.50;49.90
60965;DHT22;46834;51.100;6.886;2022-11-12T05:25:06;7.50;49.90
60965;DHT22;46834;51.100;6.886;2022-11-12T05:27:32;7.50;49.90
60965;DHT22;46834;51.100;6.886;2022-11-12T05:29:59;7.50;49.90
60965;DHT22;46834;51.100;6.886;2022-11-12T05:32:25;7.40;49.80
60965;DHT22;46834;51.100;6.886;2022-11-12T05:34:51;7.40;49.80
60965;DHT22;46834;51.100;6.886;2022-11-12T05:37:17;7.40;49.80
60965;DHT22;46834;51.100;6.886;2022-11-12T05:39:43;7.40;49.80
60965;DHT22;46834;51.100;6.886;2022-11-12T05:42:09;7.40;49.80
60965;DHT22;46834;51.100;6.886;2022-11-12T05:44:35;7.30;49.80
60965;DHT22;46834;51.100;6.886;2022-11-12T05:47:00;7.30;49.80
60965;DHT22;46834;51.100;6.886;2022-11-12T05:49:26;7.30;49.80
60965;DHT22;46834;51.100;6.886;2022-11-12T05:51:52;7.30;49.80
60965;DHT22;46834;51.100;6.886;2022-11-12T05:54:18;7.20;49.80
60965;DHT22;46834;51.100;6.886;2022-11-12T05:56:44;7.20;49.80
60965;DHT22;46834;51.100;6.886;2022-11-12T05:59:11;7.20;49.90
60965;DHT22;46834;51.100;6.886;2022-11-12T06:01:38;7.20;50.00
60965;DHT22;46834;51.100;6.886;2022-11-12T06:04:12;7.20;50.00
60965;DHT22;46834;51.100;6.886;2022-11-12T06:06:42;7.10;50.00
60965;DHT22;46834;51.100;6.886;2022-11-12T06:09:09;7.10;50.10
60965;DHT22;46834;51.100;6.886;2022-11-12T06:11:36;7.10;50.00
60965;DHT22;46834;51.100;6.886;2022-11-12T06:14:02;7.10;50.10
60965;DHT22;46834;51.100;6.886;2022-11-12T06:16:28;7.10;50.10
60965;DHT22;46834;51.100;6.886;2022-11-12T06:18:55;7.10;50.10
60965;DHT22;46834;51.100;6.886;2022-11-12T06:21:21;7.10;50.10
60965;DHT22;46834;51.100;6.886;2022-11-12T06:24:05;7.10;50.20
60965;DHT22;46834;51.100;6.886;2022-11-12T06:26:31;7.10;50.50
60965;DHT22;46834;51.100;6.886;2022-11-12T06:28:56;7.10;50.20
60965;DHT22;46834;51.100;6.886;2022-11-12T06:31:22;7.10;50.20
60965;DHT22;46834;51.100;6.886;2022-11-12T06:33:48;7.10;50.30
60965;DHT22;46834;51.100;6.886;2022-11-12T06:36:17;7.10;50.30
60965;DHT22;46834;51.100;6.886;2022-11-12T06:38:44;7.10;50.30
60965;DHT22;46834;51.100;6.886;2022-11-12T06:41:11;7.10;50.30
60965;DHT22;46834;51.100;6.886;2022-11-12T06:43:38;7.10;50.30
60965;DHT22;46834;51.100;6.886;2022-11-12T06:46:10;7.10;50.30
60965;DHT22;46834;51.100;6.886;2022-11-12T06:48:40;7.10;50.30
60965;DHT22;46834;51.100;6.886;2022-11-12T06:51:11;7.10;50.20
60965;DHT22;46834;51.100;6.886;2022-11-12T06:53:41;7.10;50.30
60965;DHT22;46834;51.100;6.886;2022-11-12T06:56:07;7.10;50.20
60965;DHT22;46834;51.100;6.886;2022-11-12T06:58:33;7.00;50.20
60965;DHT22;46834;51.100;6.886;2022-11-12T07:01:18;7.00;50.20
60965;DHT22;46834;51.100;6.886;2022-11-12T07:03:44;7.00;50.50
60965;DHT22;46834;51.100;6.886;2022-11-12T07:06:14;7.00;50.20
60965;DHT22;46834;51.100;6.886;2022-11-12T07:08:43;7.00;50.20
60965;DHT22;46834;51.100;6.886;2022-11-12T07:11:09;7.00;50.20
60965;DHT22;46834;51.100;6.886;2022-11-12T07:13:35;7.00;50.20
60965;DHT22;46834;51.100;6.886;2022-11-12T07:16:03;7.00;50.30
60965;DHT22;46834;51.100;6.886;2022-11-12T07:18:30;7.00;50.30
60965;DHT22;46834;51.100;6.886;2022-11-12T07:21:01;7.00;50.30
60965;DHT22;46834;51.100;6.886;2022-11-12T07:23:31;7.00;50.40
60965;DHT22;46834;51.100;6.886;2022-11-12T07:26:04;7.10;50.40
60965;DHT22;46834;51.100;6.886;2022-11-12T07:28:32;7.10;50.60
60965;DHT22;46834;51.100;6.886;2022-11-12T07:31:02;7.10;50.50
60965;DHT22;46834;51.100;6.886;2022-11-12T07:33:30;7.10;50.60
60965;DHT22;46834;51.100;6.886;2022-11-12T07:36:02;7.10;50.60
60965;DHT22;46834;51.100;6.886;2022-11-12T07:38:37;7.10;50.60
60965;DHT22;46834;51.100;6.886;2022-11-12T07:41:08;7.20;50.80
60965;DHT22;46834;51.100;6.886;2022-11-12T07:43:37;7.20;50.80
60965;DHT22;46834;51.100;6.886;2022-11-12T07:46:06;7.20;50.80
60965;DHT22;46834;51.100;6.886;2022-11-12T07:48:35;7.30;51.00
60965;DHT22;46834;51.100;6.886;2022-11-12T07:51:15;7.30;50.90
60965;DHT22;46834;51.100;6.886;2022-11-12T07:53:49;7.30;51.20
60965;DHT22;46834;51.100;6.886;2022-11-12T07:56:20;7.40;51.00
60965;DHT22;46834;51.100;6.886;2022-11-12T07:58:47;7.40;51.00
60965;DHT22;46834;51.100;6.886;2022-11-12T08:01:32;7.50;51.10
60965;DHT22;46834;51.100;6.886;2022-11-12T08:03:59;7.50;51.30
60965;DHT22;46834;51.100;6.886;2022-11-12T08:06:27;7.60;51.10
60965;DHT22;46834;51.100;6.886;2022-11-12T08:08:54;7.60;51.10
60965;DHT22;46834;51.100;6.886;2022-11-12T08:11:20;7.60;51.10
60965;DHT22;46834;51.100;6.886;2022-11-12T08:13:47;7.70;51.10
60965;DHT22;46834;51.100;6.886;2022-11-12T08:16:13;7.70;51.10
60965;DHT22;46834;51.100;6.886;2022-11-12T08:18:39;7.80;51.20
60965;DHT22;46834;51.100;6.886;2022-11-12T08:21:06;7.80;51.20
60965;DHT22;46834;51.100;6.886;2022-11-12T08:23:35;7.90;51.30
60965;DHT22;46834;51.100;6.886;2022-11-12T08:26:02;7.90;51.20
60965;DHT22;46834;51.100;6.886;2022-11-12T08:28:31;8.00;51.30
60965;DHT22;46834;51.100;6.886;2022-11-12T08:31:06;8.10;51.30
60965;DHT22;46834;51.100;6.886;2022-11-12T08:33:34;8.20;51.40
60965;DHT22;46834;51.100;6.886;2022-11-12T08:36:03;8.20;51.30
60965;DHT22;46834;51.100;6.886;2022-11-12T08:38:30;8.30;51.40
60965;DHT22;46834;51.100;6.886;2022-11-12T08:41:01;8.40;51.40
60965;DHT22;46834;51.100;6.886;2022-11-12T08:43:27;8.40;51.40
60965;DHT22;46834;51.100;6.886;2022-11-12T08:45:56;8.50;51.50
60965;DHT22;46834;51.100;6.886;2022-11-12T08:48:22;8.60;51.50
60965;DHT22;46834;51.100;6.886;2022-11-12T08:50:48;8.70;51.60
60965;DHT22;46834;51.100;6.886;2022-11-12T08:53:13;8.70;51.50
60965;DHT22;46834;51.100;6.886;2022-11-12T08:55:39;8.80;51.50
60965;DHT22;46834;51.100;6.886;2022-11-12T08:58:05;8.90;51.50
60965;DHT22;46834;51.100;6.886;2022-11-12T09:00:36;9.00;51.50
60965;DHT22;46834;51.100;6.886;2022-11-12T09:03:05;9.00;51.50
60965;DHT22;46834;51.100;6.886;2022-11-12T09:05:35;9.10;51.50
60965;DHT22;46834;51.100;6.886;2022-11-12T09:08:04;9.20;51.50
60965;DHT22;46834;51.100;6.886;2022-11-12T09:10:32;9.30;51.50
60965;DHT22;46834;51.100;6.886;2022-11-12T09:12:58;9.40;51.50
60965;DHT22;46834;51.100;6.886;2022-11-12T09:15:24;9.40;51.50
60965;DHT22;46834;51.100;6.886;2022-11-12T09:17:58;9.50;51.50
60965;DHT22;46834;51.100;6.886;2022-11-12T09:20:28;9.60;51.40
60965;DHT22;46834;51.100;6.886;2022-11-12T09:23:05;9.70;51.40
60965;DHT22;46834;51.100;6.886;2022-11-12T09:25:33;9.70;51.20
60965;DHT22;46834;51.100;6.886;2022-11-12T09:28:10;9.80;51.20
60965;DHT22;46834;51.100;6.886;2022-11-12T09:30:43;9.90;51.10
60965;DHT22;46834;51.100;6.886;2022-11-12T09:33:14;9.90;51.20
60965;DHT22;46834;51.100;6.886;2022-11-12T09:35:45;9.90;51.10
60965;DHT22;46834;51.100;6.886;2022-11-12T09:38:11;10.00;51.10
60965;DHT22;46834;51.100;6.886;2022-11-12T09:43:21;10.10;51.20
60965;DHT22;46834;51.100;6.886;2022-11-12T09:45:51;10.20;51.20
60965;DHT22;46834;51.100;6.886;2022-11-12T09:48:33;10.30;51.20
60965;DHT22;46834;51.100;6.886;2022-11-12T09:51:05;10.30;51.00
60965;DHT22;46834;51.100;6.886;2022-11-12T09:56:49;10.50;51.00
60965;DHT22;46834;51.100;6.886;2022-11-12T09:59:17;10.50;51.10
60965;DHT22;46834;51.100;6.886;2022-11-12T10:04:52;10.70;51.10
60965;DHT22;46834;51.100;6.886;2022-11-12T10:10:43;10.80;50.80
60965;DHT22;46834;51.100;6.886;2022-11-12T10:16:41;11.00;51.00
60965;DHT22;46834;51.100;6.886;2022-11-12T10:19:24;11.10;51.00
60965;DHT22;46834;51.100;6.886;2022-11-12T10:25:14;11.20;51.20
60965;DHT22;46834;51.100;6.886;2022-11-12T10:27:44;11.30;51.10
60965;DHT22;46834;51.100;6.886;2022-11-12T10:32:43;11.50;51.10
60965;DHT22;46834;51.100;6.886;2022-11-12T10:35:21;11.50;51.20
60965;DHT22;46834;51.100;6.886;2022-11-12T10:38:05;11.60;51.10
60965;DHT22;46834;51.100;6.886;2022-11-12T10:40:40;11.70;50.90
60965;DHT22;46834;51.100;6.886;2022-11-12T10:45:45;11.80;51.00
60965;DHT22;46834;51.100;6.886;2022-11-12T10:48:25;11.90;51.00
60965;DHT22;46834;51.100;6.886;2022-11-12T10:50:53;12.00;50.80
60965;DHT22;46834;51.100;6.886;2022-11-12T10:53:38;12.00;51.00
60965;DHT22;46834;51.100;6.886;2022-11-12T11:01:43;12.30;50.80
60965;DHT22;46834;51.100;6.886;2022-11-12T11:04:24;12.40;51.00
60965;DHT22;46834;51.100;6.886;2022-11-12T11:07:21;12.40;50.60
60965;DHT22;46834;51.100;6.886;2022-11-12T11:09:56;12.50;50.60
60965;DHT22;46834;51.100;6.886;2022-11-12T11:12:32;12.60;50.80
60965;DHT22;46834;51.100;6.886;2022-11-12T11:15:17;12.60;50.60
60965;DHT22;46834;51.100;6.886;2022-11-12T11:17:45;12.70;50.60
60965;DHT22;46834;51.100;6.886;2022-11-12T11:20:23;12.70;50.70
60965;DHT22;46834;51.100;6.886;2022-11-12T11:22:56;12.70;50.50
60965;DHT22;46834;51.100;6.886;2022-11-12T11:25:28;12.80;50.70
60965;DHT22;46834;51.100;6.886;2022-11-12T11:28:12;12.90;50.80
60965;DHT22;46834;51.100;6.886;2022-11-12T11:30:51;12.90;50.50
60965;DHT22;46834;51.100;6.886;2022-11-12T11:40:15;13.10;50.60
60965;DHT22;46834;51.100;6.886;2022-11-12T11:52:06;13.40;50.30
60965;DHT22;46834;51.100;6.886;2022-11-12T11:58:05;13.50;50.10
60965;DHT22;46834;51.100;6.886;2022-11-12T12:03:47;13.60;50.00
60965;DHT22;46834;51.100;6.886;2022-11-12T12:06:30;13.60;50.20
60965;DHT22;46834;51.100;6.886;2022-11-12T12:09:20;13.70;50.20
60965;DHT22;46834;51.100;6.886;2022-11-12T12:21:20;13.90;49.90
60965;DHT22;46834;51.100;6.886;2022-11-12T12:24:01;13.90;50.00
60965;DHT22;46834;51.100;6.886;2022-11-12T12:26:41;14.00;49.60
60965;DHT22;46834;51.100;6.886;2022-11-12T12:32:08;14.00;49.70
60965;DHT22;46834;51.100;6.886;2022-11-12T12:34:42;14.00;49.90
60965;DHT22;46834;51.100;6.886;2022-11-12T12:37:32;14.10;49.90
60965;DHT22;46834;51.100;6.886;2022-11-12T12:40:46;14.10;49.50
60965;DHT22;46834;51.100;6.886;2022-11-12T12:43:33;14.20;49.40
60965;DHT22;46834;51.100;6.886;2022-11-12T12:46:02;14.20;49.60
60965;DHT22;46834;51.100;6.886;2022-11-12T12:48:34;14.20;49.70
60965;DHT22;46834;51.100;6.886;2022-11-12T12:51:06;14.30;49.50
60965;DHT22;46834;51.100;6.886;2022-11-12T12:53:34;14.30;49.60
60965;DHT22;46834;51.100;6.886;2022-11-12T12:58:50;14.30;49.50
60965;DHT22;46834;51.100;6.886;2022-11-12T13:04:03;14.40;49.30
60965;DHT22;46834;51.100;6.886;2022-11-12T13:25:05;14.60;49.20
60965;DHT22;46834;51.100;6.886;2022-11-12T13:37:59;14.60;49.10
60965;DHT22;46834;51.100;6.886;2022-11-12T13:40:39;14.60;48.90
60965;DHT22;46834;51.100;6.886;2022-11-12T13:48:49;14.70;48.70
60965;DHT22;46834;51.100;6.886;2022-11-12T13:53:56;14.70;48.90
60965;DHT22;46834;51.100;6.886;2022-11-12T13:56:30;14.70;49.10
60965;DHT22;46834;51.100;6.886;2022-11-12T13:59:15;14.80;48.80
60965;DHT22;46834;51.100;6.886;2022-11-12T14:01:43;14.80;48.60
60965;DHT22;46834;51.100;6.886;2022-11-12T14:04:12;14.80;48.90
60965;DHT22;46834;51.100;6.886;2022-11-12T14:06:50;14.90;48.80
60965;DHT22;46834;51.100;6.886;2022-11-12T14:09:52;14.90;48.80
60965;DHT22;46834;51.100;6.886;2022-11-12T14:12:50;14.90;48.40
60965;DHT22;46834;51.100;6.886;2022-11-12T14:22:15;15.00;48.30
60965;DHT22;46834;51.100;6.886;2022-11-12T14:24:44;15.00;48.30
60965;DHT22;46834;51.100;6.886;2022-11-12T14:30:13;15.00;47.90
60965;DHT22;46834;51.100;6.886;2022-11-12T14:33:09;15.00;47.90
60965;DHT22;46834;51.100;6.886;2022-11-12T14:35:38;15.00;48.20
60965;DHT22;46834;51.100;6.886;2022-11-12T14:38:17;14.90;48.00
60965;DHT22;46834;51.100;6.886;2022-11-12T14:43:23;14.90;48.20
60965;DHT22;46834;51.100;6.886;2022-11-12T14:45:54;14.90;47.90
60965;DHT22;46834;51.100;6.886;2022-11-12T14:48:21;14.90;48.20
60965;DHT22;46834;51.100;6.886;2022-11-12T14:50:49;14.90;48.20
60965;DHT22;46834;51.100;6.886;2022-11-12T14:53:27;14.90;48.10
60965;DHT22;46834;51.100;6.886;2022-11-12T14:56:03;14.90;47.90
60965;DHT22;46834;51.100;6.886;2022-11-12T14:58:32;15.00;48.10
60965;DHT22;46834;51.100;6.886;2022-11-12T15:01:26;15.00;48.20
60965;DHT22;46834;51.100;6.886;2022-11-12T15:04:16;15.00;47.70
60965;DHT22;46834;51.100;6.886;2022-11-12T15:06:54;15.00;47.70
60965;DHT22;46834;51.100;6.886;2022-11-12T15:09:33;15.00;47.90
60965;DHT22;46834;51.100;6.886;2022-11-12T15:12:02;15.00;47.70
60965;DHT22;46834;51.100;6.886;2022-11-12T15:14:30;15.00;48.00
60965;DHT22;46834;51.100;6.886;2022-11-12T15:16:56;15.00;47.90
60965;DHT22;46834;51.100;6.886;2022-11-12T15:19:26;14.90;47.80
60965;DHT22;46834;51.100;6.886;2022-11-12T15:21:55;14.90;47.80
60965;DHT22;46834;51.100;6.886;2022-11-12T15:24:35;14.90;47.70
60965;DHT22;46834;51.100;6.886;2022-11-12T15:35:42;14.80;47.20
60965;DHT22;46834;51.100;6.886;2022-11-12T15:38:27;14.70;47.30
60965;DHT22;46834;51.100;6.886;2022-11-12T15:40:59;14.70;47.00
60965;DHT22;46834;51.100;6.886;2022-11-12T15:43:28;14.60;47.40
60965;DHT22;46834;51.100;6.886;2022-11-12T15:45:57;14.60;47.30
60965;DHT22;46834;51.100;6.886;2022-11-12T15:48:23;14.50;47.30
60965;DHT22;46834;51.100;6.886;2022-11-12T15:50:49;14.50;47.30
60965;DHT22;46834;51.100;6.886;2022-11-12T15:53:15;14.40;47.30
60965;DHT22;46834;51.100;6.886;2022-11-12T15:55:42;14.40;47.30
60965;DHT22;46834;51.100;6.886;2022-11-12T15:58:16;14.30;47.10
60965;DHT22;46834;51.100;6.886;2022-11-12T16:00:44;14.30;47.10
60965;DHT22;46834;51.100;6.886;2022-11-12T16:05:43;14.20;47.20
60965;DHT22;46834;51.100;6.886;2022-11-12T16:08:09;14.20;47.20
60965;DHT22;46834;51.100;6.886;2022-11-12T16:10:36;14.10;47.10
60965;DHT22;46834;51.100;6.886;2022-11-12T16:13:04;14.10;47.20
60965;DHT22;46834;51.100;6.886;2022-11-12T16:15:31;14.10;47.20
60965;DHT22;46834;51.100;6.886;2022-11-12T16:17:58;14.00;47.10
60965;DHT22;46834;51.100;6.886;2022-11-12T16:20:31;14.00;47.10
60965;DHT22;46834;51.100;6.886;2022-11-12T16:22:58;13.90;46.90
60965;DHT22;46834;51.100;6.886;2022-11-12T16:25:28;13.90;47.00
60965;DHT22;46834;51.100;6.886;2022-11-12T16:27:56;13.80;46.90
60965;DHT22;46834;51.100;6.886;2022-11-12T16:30:26;13.80;47.00
60965;DHT22;46834;51.100;6.886;2022-11-12T16:32:56;13.80;46.90
60965;DHT22;46834;51.100;6.886;2022-11-12T16:35:22;13.70;46.90
60965;DHT22;46834;51.100;6.886;2022-11-12T16:37:48;13.70;46.90
60965;DHT22;46834;51.100;6.886;2022-11-12T16:40:18;13.60;46.80
60965;DHT22;46834;51.100;6.886;2022-11-12T16:42:46;13.50;46.70
60965;DHT22;46834;51.100;6.886;2022-11-12T16:45:17;13.50;46.70
60965;DHT22;46834;51.100;6.886;2022-11-12T16:47:54;13.50;46.60
60965;DHT22;46834;51.100;6.886;2022-11-12T16:50:23;13.40;46.60
60965;DHT22;46834;51.100;6.886;2022-11-12T16:52:50;13.40;46.60
60965;DHT22;46834;51.100;6.886;2022-11-12T16:55:17;13.30;46.60
60965;DHT22;46834;51.100;6.886;2022-11-12T16:57:44;13.30;46.50
60965;DHT22;46834;51.100;6.886;2022-11-12T17:00:12;13.20;46.50
60965;DHT22;46834;51.100;6.886;2022-11-12T17:02:39;13.20;46.40
60965;DHT22;46834;51.100;6.886;2022-11-12T17:05:09;13.20;46.50
60965;DHT22;46834;51.100;6.886;2022-11-12T17:07:41;13.10;46.30
60965;DHT22;46834;51.100;6.886;2022-11-12T17:10:07;13.10;46.30
60965;DHT22;46834;51.100;6.886;2022-11-12T17:12:33;13.10;46.30
60965;DHT22;46834;51.100;6.886;2022-11-12T17:14:59;13.00;46.20
60965;DHT22;46834;51.100;6.886;2022-11-12T17:17:24;13.00;46.30
60965;DHT22;46834;51.100;6.886;2022-11-12T17:19:50;13.00;46.20
60965;DHT22;46834;51.100;6.886;2022-11-12T17:22:15;13.00;46.20
60965;DHT22;46834;51.100;6.886;2022-11-12T17:24:44;12.90;46.10
60965;DHT22;46834;51.100;6.886;2022-11-12T17:27:10;12.90;46.10
60965;DHT22;46834;51.100;6.886;2022-11-12T17:29:36;12.90;46.10
60965;DHT22;46834;51.100;6.886;2022-11-12T17:32:02;12.90;46.10
60965;DHT22;46834;51.100;6.886;2022-11-12T17:34:28;12.90;46.10
60965;DHT22;46834;51.100;6.886;2022-11-12T17:36:54;12.80;46.00
60965;DHT22;46834;51.100;6.886;2022-11-12T17:39:20;12.80;46.00
60965;DHT22;46834;51.100;6.886;2022-11-12T17:41:45;12.80;46.00
60965;DHT22;46834;51.100;6.886;2022-11-12T17:44:16;12.80;46.00
60965;DHT22;46834;51.100;6.886;2022-11-12T17:46:43;12.80;45.90
60965;DHT22;46834;51.100;6.886;2022-11-12T17:49:10;12.70;45.90
60965;DHT22;46834;51.100;6.886;2022-11-12T17:51:38;12.70;46.00
60965;DHT22;46834;51.100;6.886;2022-11-12T17:54:04;12.70;46.00
60965;DHT22;46834;51.100;6.886;2022-11-12T17:56:30;12.70;46.00
60965;DHT22;46834;51.100;6.886;2022-11-12T17:58:58;12.60;46.00
60965;DHT22;46834;51.100;6.886;2022-11-12T18:01:26;12.60;46.00
60965;DHT22;46834;51.100;6.886;2022-11-12T18:03:55;12.60;46.00
60965;DHT22;46834;51.100;6.886;2022-11-12T18:06:24;12.60;46.00
60965;DHT22;46834;51.100;6.886;2022-11-12T18:08:55;12.50;46.00
60965;DHT22;46834;51.100;6.886;2022-11-12T18:11:24;12.50;46.00
60965;DHT22;46834;51.100;6.886;2022-11-12T18:13:51;12.50;46.00
60965;DHT22;46834;51.100;6.886;2022-11-12T18:16:22;12.50;46.00
60965;DHT22;46834;51.100;6.886;2022-11-12T18:18:53;12.40;45.90